Vinemont, Alabama
Current Conditions -  °F | °C
As of 4:55 PM on Saturday 20 Dec 2014 (Local Time) from KCMD Reporting Station
Clear Clear  
Wind Chill: 46°   Ceiling: Unl
Heat Index: 46°   Visibility: 10mi
Dew Point: 32°   Wind: 3mph
Humidity: 58%   Direction: 10°N
Pressure: 30.21"   Gusts: NA
Location:  34.25°N, 86.86°W
Report Text: KCMD 202255Z AUTO 01003KT 10SM CLR 08/00 A3021 RMK AO2 T00770000
Loading
Personal Weather Stations






























Interactive Weather Map New forecast layout! Learn more

10-Day Weather Forecast

Advertisements
Track Severe Weather on mobile